createdAt,value
2023-04-15T00:02:25.473Z,68.71
2023-04-15T00:04:53.572Z,70.05
2023-04-15T00:07:21.537Z,69.26
2023-04-15T00:09:49.451Z,68.79
2023-04-15T00:12:17.333Z,70.71
2023-04-15T00:14:46.666Z,70.64
2023-04-15T00:17:14.666Z,70.49
2023-04-15T00:19:42.716Z,70.60
2023-04-15T00:22:10.678Z,69.45
2023-04-15T00:24:38.633Z,69.00
2023-04-15T00:27:06.649Z,69.14
2023-04-15T00:29:35.681Z,69.70
2023-04-15T00:32:05.001Z,70.05
2023-04-15T00:34:33.407Z,70.04
2023-04-15T00:37:01.320Z,69.22
2023-04-15T00:39:29.720Z,69.29
2023-04-15T00:41:57.898Z,69.34
2023-04-15T00:44:25.799Z,69.49
2023-04-15T00:46:54.117Z,70.59
2023-04-15T00:49:24.121Z,69.48
2023-04-15T00:51:52.260Z,69.48
2023-04-15T00:54:20.180Z,72.38
2023-04-15T00:56:48.141Z,72.09
2023-04-15T00:59:16.798Z,73.67
2023-04-15T01:01:45.749Z,70.75
2023-04-15T01:04:13.899Z,70.51
2023-04-15T01:06:43.354Z,70.35
2023-04-15T01:09:11.904Z,71.60
2023-04-15T01:11:40.170Z,72.61
2023-04-15T01:14:08.633Z,70.80
2023-04-15T01:16:36.916Z,70.34
2023-04-15T01:19:05.055Z,70.36
2023-04-15T01:21:33.436Z,70.64
2023-04-15T01:24:03.163Z,71.62
2023-04-15T01:26:32.499Z,70.56
2023-04-15T01:29:00.779Z,72.10
2023-04-15T01:31:28.892Z,70.63
2023-04-15T01:33:56.834Z,71.08
2023-04-15T01:36:24.813Z,70.36
2023-04-15T01:38:52.802Z,70.55
2023-04-15T01:41:23.885Z,71.14
2023-04-15T01:43:53.297Z,71.12
2023-04-15T01:46:21.229Z,70.53
2023-04-15T01:48:49.151Z,70.97
2023-04-15T01:51:17.294Z,72.40
2023-04-15T01:53:46.621Z,72.96
2023-04-15T01:56:16.509Z,71.58
2023-04-15T01:58:44.871Z,72.36
2023-04-15T02:01:15.257Z,71.64
2023-04-15T02:03:43.522Z,73.16
2023-04-15T02:06:11.549Z,73.15
2023-04-15T02:08:39.520Z,72.47
2023-04-15T02:11:07.426Z,72.46
2023-04-15T02:13:35.342Z,71.90
2023-04-15T02:16:04.865Z,71.89
2023-04-15T02:18:34.211Z,71.93
2023-04-15T02:21:02.182Z,72.73
2023-04-15T02:23:30.080Z,72.54
2023-04-15T02:25:57.978Z,72.40
2023-04-15T02:28:25.895Z,71.96
2023-04-15T02:30:54.769Z,71.42
2023-04-15T02:33:23.011Z,71.85
2023-04-15T02:35:53.331Z,71.25
2023-04-15T02:38:21.211Z,71.38
2023-04-15T02:40:49.792Z,72.97
2023-04-15T02:43:18.317Z,71.61
2023-04-15T02:45:47.100Z,71.97
2023-04-15T02:48:15.486Z,73.63
2023-04-15T02:50:43.378Z,71.86
2023-04-15T02:53:13.471Z,72.56
2023-04-15T02:55:42.829Z,71.49
2023-04-15T02:58:11.001Z,72.50
2023-04-15T03:00:39.049Z,72.09
2023-04-15T03:03:07.680Z,72.21
2023-04-15T03:05:35.815Z,75.36
2023-04-15T03:08:03.727Z,72.85
2023-04-15T03:10:33.050Z,72.55
2023-04-15T03:13:01.183Z,75.58
2023-04-15T03:15:29.184Z,73.10
2023-04-15T03:17:57.267Z,73.91
2023-04-15T03:20:25.221Z,74.04
2023-04-15T03:22:53.161Z,73.66
2023-04-15T03:25:21.102Z,74.54
2023-04-15T03:27:50.412Z,74.83
2023-04-15T03:30:18.315Z,74.92
2023-04-15T03:32:46.231Z,75.18
2023-04-15T03:35:14.171Z,75.62
2023-04-15T03:37:42.126Z,75.72
2023-04-15T03:40:10.916Z,73.87
2023-04-15T03:42:38.859Z,72.80
2023-04-15T03:45:09.489Z,74.39
2023-04-15T03:47:37.424Z,75.82
2023-04-15T03:50:05.896Z,74.67
2023-04-15T03:52:33.830Z,74.34
2023-04-15T03:55:01.724Z,76.08
2023-04-15T03:57:29.604Z,74.01
2023-04-15T03:59:57.556Z,73.88
2023-04-15T04:02:28.384Z,75.30
2023-04-15T04:04:56.504Z,73.39
2023-04-15T04:07:25.409Z,74.19
2023-04-15T04:09:53.385Z,74.05
2023-04-15T04:12:21.551Z,73.50
2023-04-15T04:14:49.477Z,76.30
2023-04-15T04:17:17.442Z,74.24
2023-04-15T04:19:46.761Z,73.32
2023-04-15T04:22:14.670Z,74.69
2023-04-15T04:24:42.606Z,73.23
2023-04-15T04:27:10.790Z,73.42
2023-04-15T04:29:38.699Z,77.96
2023-04-15T04:32:06.999Z,74.24
2023-04-15T04:34:34.944Z,73.79
2023-04-15T04:37:04.230Z,75.20
2023-04-15T04:39:32.825Z,74.80
2023-04-15T04:42:01.288Z,75.81
2023-04-15T04:44:29.190Z,76.30
2023-04-15T04:46:57.103Z,76.08
2023-04-15T04:49:24.992Z,74.40
2023-04-15T04:51:53.394Z,74.23
2023-04-15T04:54:22.695Z,77.66
2023-04-15T04:56:50.578Z,75.68
2023-04-15T04:59:19.511Z,75.18
2023-04-15T05:01:47.611Z,75.22
2023-04-15T05:04:15.846Z,74.19
2023-04-15T05:06:43.830Z,74.48
2023-04-15T05:09:11.770Z,75.00
2023-04-15T05:11:41.191Z,74.17
2023-04-15T05:14:09.069Z,77.78
2023-04-15T05:16:37.159Z,74.43
2023-04-15T05:19:05.065Z,75.34
2023-04-15T05:21:33.111Z,75.23
2023-04-15T05:24:01.070Z,75.72
2023-04-15T05:26:29.029Z,76.71
2023-04-15T05:28:58.749Z,76.34
2023-04-15T05:31:26.849Z,76.48
2023-04-15T05:33:54.826Z,79.07
2023-04-15T05:36:22.723Z,75.76
2023-04-15T05:38:50.950Z,75.22
2023-04-15T05:41:19.897Z,74.98
2023-04-15T05:43:48.164Z,77.49
2023-04-15T05:46:17.598Z,76.98
2023-04-15T05:48:45.600Z,75.48
2023-04-15T05:51:13.568Z,77.18
2023-04-15T05:53:42.255Z,76.62
2023-04-15T05:56:10.273Z,76.45
2023-04-15T05:58:38.196Z,76.67
2023-04-15T06:01:06.483Z,75.38
2023-04-15T06:03:36.035Z,75.79
2023-04-15T06:06:03.953Z,77.44
2023-04-15T06:08:31.846Z,76.04
2023-04-15T06:11:00.100Z,75.47
2023-04-15T06:13:28.226Z,74.46
2023-04-15T06:15:56.177Z,74.10
2023-04-15T06:18:24.141Z,76.73
2023-04-15T06:20:53.508Z,78.10
2023-04-15T06:23:21.435Z,77.53
2023-04-15T06:25:49.474Z,74.99
2023-04-15T06:28:17.385Z,76.47
2023-04-15T06:30:45.465Z,75.36
2023-04-15T06:33:13.392Z,79.05
2023-04-15T06:35:41.298Z,78.44
2023-04-15T06:38:10.596Z,75.17
2023-04-15T06:40:38.587Z,79.18
2023-04-15T06:43:06.508Z,74.96
2023-04-15T06:45:34.536Z,74.39
2023-04-15T06:48:02.476Z,77.23
2023-04-15T06:50:30.415Z,76.24
2023-04-15T06:52:58.406Z,74.59
2023-04-15T06:55:27.771Z,75.23
2023-04-15T06:57:55.691Z,74.71
2023-04-15T07:00:23.718Z,75.48
2023-04-15T07:02:52.180Z,76.43
2023-04-15T07:05:20.299Z,75.30
2023-04-15T07:07:48.247Z,76.07
2023-04-15T07:10:16.218Z,75.03
2023-04-15T07:12:45.820Z,74.44
2023-04-15T07:15:13.795Z,74.75
2023-04-15T07:17:43.325Z,74.55
2023-04-15T07:20:12.812Z,74.89
2023-04-15T07:22:41.162Z,73.93
2023-04-15T07:25:10.201Z,74.46
2023-04-15T07:27:38.176Z,77.41
2023-04-15T07:30:09.258Z,75.11
2023-04-15T07:32:37.755Z,74.56
2023-04-15T07:35:06.357Z,74.68
2023-04-15T07:37:34.301Z,77.17
2023-04-15T07:40:02.334Z,74.90
2023-04-15T07:42:30.617Z,75.00
2023-04-15T07:44:58.638Z,74.52
2023-04-15T07:47:28.272Z,74.04
2023-04-15T07:49:56.230Z,75.80
2023-04-15T07:52:24.124Z,74.74
2023-04-15T07:54:52.092Z,76.55
2023-04-15T07:57:20.157Z,75.16
2023-04-15T07:59:48.061Z,74.67
2023-04-15T08:02:16.048Z,75.35
2023-04-15T08:04:45.580Z,75.87
2023-04-15T08:07:13.596Z,74.95
2023-04-15T08:09:41.982Z,75.50
2023-04-15T08:12:12.550Z,75.46
2023-04-15T08:14:40.670Z,74.81
2023-04-15T08:17:08.608Z,74.63
2023-04-15T08:19:36.597Z,74.58
2023-04-15T08:22:05.905Z,74.61
2023-04-15T08:24:39.007Z,74.55
2023-04-15T08:27:07.985Z,75.38
2023-04-15T08:29:35.994Z,76.30
2023-04-15T08:32:04.176Z,74.76
2023-04-15T08:34:32.155Z,74.91
2023-04-15T08:37:00.142Z,74.58
2023-04-15T08:39:29.450Z,75.82
2023-04-15T08:42:02.833Z,75.71
2023-04-15T08:44:32.711Z,75.70
2023-04-15T08:47:03.374Z,74.88
2023-04-15T08:49:31.678Z,75.52
2023-04-15T08:52:00.767Z,74.95
2023-04-15T08:54:30.256Z,74.65
2023-04-15T08:56:59.618Z,75.38
2023-04-15T08:59:27.759Z,75.23
2023-04-15T09:01:56.771Z,75.10
2023-04-15T09:04:24.694Z,75.18
2023-04-15T09:06:53.389Z,74.69
2023-04-15T09:09:21.272Z,77.69
2023-04-15T09:11:51.598Z,76.59
2023-04-15T09:14:20.031Z,74.99
2023-04-15T09:17:01.980Z,78.23
2023-04-15T09:19:30.849Z,75.39
2023-04-15T09:21:59.994Z,76.20
2023-04-15T09:24:37.445Z,75.60
2023-04-15T09:27:07.339Z,75.45
2023-04-15T09:29:35.370Z,74.75
2023-04-15T09:32:13.599Z,75.53
2023-04-15T09:34:41.898Z,75.03
2023-04-15T09:37:11.012Z,75.49
2023-04-15T09:39:50.173Z,76.41
2023-04-15T09:42:24.453Z,75.01
2023-04-15T09:44:53.113Z,75.38
2023-04-15T09:47:30.493Z,74.77
2023-04-15T09:49:58.944Z,74.75
2023-04-15T09:52:27.422Z,74.34
2023-04-15T09:54:56.610Z,75.69
2023-04-15T09:57:26.286Z,74.61
2023-04-15T09:59:54.269Z,74.86
2023-04-15T10:02:22.616Z,74.79
2023-04-15T10:04:50.928Z,75.71
2023-04-15T10:07:20.675Z,75.22
2023-04-15T10:09:49.673Z,74.98
2023-04-15T10:12:19.033Z,74.37
2023-04-15T10:14:51.807Z,73.73
2023-04-15T10:17:20.082Z,73.95
2023-04-15T10:19:48.631Z,75.40
2023-04-15T10:22:16.848Z,74.96
2023-04-15T10:24:45.570Z,74.42
2023-04-15T10:27:13.598Z,74.77
2023-04-15T10:29:41.769Z,75.55
2023-04-15T10:32:12.029Z,73.73
2023-04-15T10:34:40.067Z,73.75
2023-04-15T10:37:11.367Z,74.34
2023-04-15T10:39:43.450Z,75.46
2023-04-15T10:42:12.615Z,74.18
2023-04-15T10:44:41.063Z,74.61
2023-04-15T10:47:13.715Z,74.07
2023-04-15T10:49:46.206Z,75.69
2023-04-15T10:52:14.281Z,74.33
2023-04-15T10:54:42.286Z,74.59
2023-04-15T10:57:16.384Z,74.46
2023-04-15T11:00:13.612Z,75.09
2023-04-15T11:02:45.397Z,74.50
2023-04-15T11:05:14.158Z,73.99
2023-04-15T11:07:48.702Z,74.31
2023-04-15T11:10:53.916Z,73.91
2023-04-15T11:13:28.330Z,73.89
2023-04-15T11:16:01.620Z,74.59
2023-04-15T11:18:32.947Z,73.24
2023-04-15T11:21:03.600Z,75.00
2023-04-15T11:23:36.795Z,74.80
2023-04-15T11:26:09.225Z,73.33
2023-04-15T11:28:39.114Z,74.19
2023-04-15T11:31:10.845Z,72.61
2023-04-15T11:33:46.674Z,73.33
2023-04-15T11:36:14.980Z,73.30
2023-04-15T11:38:48.058Z,74.02
2023-04-15T11:41:16.695Z,75.11
2023-04-15T11:43:44.635Z,72.27
2023-04-15T11:46:12.605Z,73.45
2023-04-15T11:48:44.400Z,71.24
2023-04-15T11:51:12.698Z,71.69
2023-04-15T11:53:43.649Z,71.15
2023-04-15T11:56:13.358Z,72.96
2023-04-15T11:58:42.582Z,70.83
2023-04-15T12:01:10.579Z,71.22
2023-04-15T12:03:39.647Z,70.45
2023-04-15T12:06:12.412Z,69.86
2023-04-15T12:09:01.126Z,69.43
2023-04-15T12:11:37.005Z,70.87
2023-04-15T12:14:07.488Z,69.18
2023-04-15T12:16:45.750Z,69.07
2023-04-15T12:19:18.811Z,68.16
2023-04-15T12:21:49.359Z,68.99
2023-04-15T12:24:21.885Z,68.85
2023-04-15T12:26:51.776Z,70.57
2023-04-15T12:29:19.862Z,68.26
2023-04-15T12:31:52.212Z,68.56
2023-04-15T12:34:21.215Z,68.67
2023-04-15T12:36:50.541Z,68.71
2023-04-15T12:39:18.449Z,68.59
2023-04-15T12:41:46.314Z,69.00
2023-04-15T12:44:14.269Z,69.14
2023-04-15T12:46:42.634Z,68.56
2023-04-15T12:49:11.155Z,68.68
2023-04-15T12:51:39.071Z,67.68
2023-04-15T12:54:08.368Z,67.87
2023-04-15T12:56:36.508Z,68.02
2023-04-15T12:59:05.894Z,67.81
2023-04-15T13:01:33.839Z,68.18
2023-04-15T13:04:02.086Z,67.97
2023-04-15T13:06:30.677Z,67.92
2023-04-15T13:08:59.193Z,67.41
2023-04-15T13:11:30.862Z,67.51
2023-04-15T13:13:59.544Z,67.10
2023-04-15T13:16:27.590Z,66.32
2023-04-15T13:18:55.522Z,66.41
2023-04-15T13:21:23.474Z,66.10
2023-04-15T13:23:51.831Z,65.96
2023-04-15T13:26:19.950Z,65.86
2023-04-15T13:28:49.275Z,65.99
2023-04-15T13:31:17.299Z,65.74
2023-04-15T13:33:45.230Z,65.27
2023-04-15T13:36:13.203Z,65.57
2023-04-15T13:38:41.132Z,65.53
2023-04-15T13:41:09.052Z,64.64
2023-04-15T13:43:37.702Z,65.92
2023-04-15T13:46:07.137Z,65.56
2023-04-15T13:48:35.350Z,65.12
2023-04-15T13:51:03.541Z,65.61
2023-04-15T13:53:37.735Z,66.22
2023-04-15T13:56:07.641Z,65.14
2023-04-15T13:58:35.628Z,65.18
2023-04-15T14:01:05.663Z,64.97
2023-04-15T14:03:36.189Z,65.33
2023-04-15T14:06:04.688Z,65.49
2023-04-15T14:08:32.786Z,65.29
2023-04-15T14:11:00.716Z,64.60
2023-04-15T14:13:28.778Z,64.57
2023-04-15T14:15:58.084Z,64.71
2023-04-15T14:18:26.051Z,63.83
2023-04-15T14:20:55.601Z,64.50
2023-04-15T14:23:23.606Z,64.44
2023-04-15T14:25:51.932Z,64.50
2023-04-15T14:28:19.926Z,64.24
2023-04-15T14:30:47.891Z,61.80
2023-04-15T14:33:16.290Z,63.28
2023-04-15T14:35:44.289Z,62.43
2023-04-15T14:38:13.608Z,61.84
2023-04-15T14:40:42.276Z,61.70
2023-04-15T14:43:10.278Z,62.32
2023-04-15T14:45:41.846Z,62.63
2023-04-15T14:48:12.864Z,62.10
2023-04-15T14:50:41.224Z,62.27
2023-04-15T14:53:09.134Z,61.89
2023-04-15T14:55:38.398Z,61.81
2023-04-15T14:58:08.207Z,62.24
2023-04-15T15:00:39.297Z,62.62
2023-04-15T15:03:12.673Z,62.42
2023-04-15T15:05:41.274Z,62.46
2023-04-15T15:08:09.772Z,62.70
2023-04-15T15:10:47.166Z,61.78
2023-04-15T15:13:17.717Z,61.70
2023-04-15T15:15:45.832Z,61.30
2023-04-15T15:18:13.836Z,61.60
2023-04-15T15:20:41.853Z,62.04
2023-04-15T15:23:09.862Z,62.05
2023-04-15T15:25:39.177Z,62.10
2023-04-15T15:28:07.756Z,62.04
2023-04-15T15:30:35.706Z,62.12
2023-04-15T15:33:03.681Z,62.25
2023-04-15T15:35:31.689Z,62.37
2023-04-15T15:38:00.850Z,61.53
2023-04-15T15:40:28.774Z,61.83
2023-04-15T15:42:58.115Z,62.42
2023-04-15T15:45:26.213Z,62.72
2023-04-15T15:47:54.205Z,62.34
2023-04-15T15:50:22.227Z,62.87
2023-04-15T15:52:50.184Z,63.28
2023-04-15T15:55:18.498Z,63.06
2023-04-15T15:57:46.519Z,63.24
2023-04-15T16:00:16.509Z,63.68
2023-04-15T16:05:15.915Z,64.15
2023-04-15T16:07:43.871Z,64.64
2023-04-15T16:10:13.995Z,64.80
2023-04-15T16:12:42.456Z,64.79
2023-04-15T16:15:12.025Z,64.62
2023-04-15T16:17:41.510Z,64.68
2023-04-15T16:20:10.325Z,64.90
2023-04-15T16:22:38.340Z,64.70
2023-04-15T16:25:06.979Z,65.11
2023-04-15T16:27:36.546Z,65.18
2023-04-15T16:30:15.540Z,65.00
2023-04-15T16:32:44.916Z,64.95
2023-04-15T16:35:12.892Z,65.35
2023-04-15T16:37:40.848Z,65.24
2023-04-15T16:40:10.193Z,65.43
2023-04-15T16:42:38.126Z,65.60
2023-04-15T16:45:07.147Z,65.88
2023-04-15T16:47:35.089Z,65.54
2023-04-15T16:50:04.399Z,66.10
2023-04-15T16:52:32.317Z,65.77
2023-04-15T16:55:00.334Z,65.82
2023-04-15T16:57:31.667Z,66.16
2023-04-15T17:00:16.474Z,65.95
2023-04-15T17:02:44.569Z,66.43
2023-04-15T17:05:13.937Z,66.04
2023-04-15T17:07:41.870Z,66.33
2023-04-15T17:10:18.974Z,66.05
2023-04-15T17:12:46.910Z,66.27
2023-04-15T17:15:14.847Z,66.26
2023-04-15T17:17:42.832Z,66.34
2023-04-15T17:20:12.248Z,66.57
2023-04-15T17:22:41.560Z,66.73
2023-04-15T17:25:09.990Z,66.74
2023-04-15T17:27:38.722Z,66.74
2023-04-15T17:30:07.843Z,66.90
2023-04-15T17:32:35.802Z,67.11
2023-04-15T17:35:06.473Z,67.03
2023-04-15T17:37:34.738Z,66.95
2023-04-15T17:40:05.847Z,66.95
2023-04-15T17:42:35.266Z,67.12
2023-04-15T17:45:03.213Z,66.66
2023-04-15T17:47:31.364Z,67.11
2023-04-15T17:49:59.399Z,67.13
2023-04-15T17:52:27.389Z,67.19
2023-04-15T17:54:55.879Z,67.02
2023-04-15T17:57:25.375Z,67.29
2023-04-15T17:59:53.276Z,67.35
2023-04-15T18:02:21.388Z,66.76
2023-04-15T18:04:49.598Z,67.29
2023-04-15T18:07:17.707Z,66.95
2023-04-15T18:09:45.745Z,66.86
2023-04-15T18:12:13.653Z,67.67
2023-04-15T18:14:42.958Z,67.43
2023-04-15T18:17:10.872Z,66.86
2023-04-15T18:19:38.769Z,66.97
2023-04-15T18:22:06.680Z,67.02
2023-04-15T18:24:34.825Z,66.87
2023-04-15T18:27:03.851Z,67.10
2023-04-15T18:29:32.242Z,67.18
2023-04-15T18:32:03.029Z,66.96
2023-04-15T18:34:31.182Z,67.16
2023-04-15T18:36:59.794Z,67.45
2023-04-15T18:39:27.994Z,67.29
2023-04-15T18:41:57.349Z,67.07
2023-04-15T18:44:25.427Z,66.75
2023-04-15T18:46:53.365Z,67.17
2023-04-15T18:49:22.667Z,67.04
2023-04-15T18:51:50.684Z,66.93
2023-04-15T18:54:18.610Z,67.29
2023-04-15T18:56:49.223Z,67.33
2023-04-15T18:59:29.183Z,67.29
2023-04-15T19:01:59.207Z,67.52
2023-04-15T19:04:29.762Z,67.52
2023-04-15T19:06:58.974Z,67.55
2023-04-15T19:09:27.278Z,67.72
2023-04-15T19:11:55.384Z,68.11
2023-04-15T19:14:23.640Z,67.51
2023-04-15T19:16:51.628Z,68.23
2023-04-15T19:19:19.618Z,67.96
2023-04-15T19:21:50.191Z,68.00
2023-04-15T19:24:18.858Z,67.78
2023-04-15T19:26:49.696Z,68.09
2023-04-15T19:29:17.690Z,68.71
2023-04-15T19:31:45.620Z,67.95
2023-04-15T19:34:13.567Z,68.98
2023-04-15T19:36:41.803Z,68.43
2023-04-15T19:39:11.391Z,68.57
2023-04-15T19:41:39.382Z,68.25
2023-04-15T19:44:07.530Z,68.32
2023-04-15T19:46:35.696Z,68.22
2023-04-15T19:49:04.037Z,68.09
2023-04-15T19:51:32.317Z,68.31
2023-04-15T19:54:00.352Z,69.33
2023-04-15T19:56:30.399Z,68.85
2023-04-15T19:58:59.867Z,68.71
2023-04-15T20:01:28.881Z,68.40
2023-04-15T20:03:56.983Z,68.14
2023-04-15T20:06:25.098Z,68.42
2023-04-15T20:08:53.003Z,68.28
2023-04-15T20:11:22.237Z,68.39
2023-04-15T20:13:51.605Z,68.49
2023-04-15T20:16:19.615Z,68.65
2023-04-15T20:18:47.550Z,68.73
2023-04-15T20:21:15.739Z,68.81
2023-04-15T20:23:43.682Z,68.74
2023-04-15T20:26:11.564Z,68.94
2023-04-15T20:28:39.498Z,68.48
2023-04-15T20:31:08.856Z,68.63
2023-04-15T20:33:36.804Z,68.65
2023-04-15T20:36:04.866Z,69.56
2023-04-15T20:38:32.786Z,68.88
2023-04-15T20:41:00.995Z,68.50
2023-04-15T20:43:28.913Z,68.76
2023-04-15T20:45:58.786Z,68.87
2023-04-15T20:48:31.482Z,68.52
2023-04-15T20:50:59.374Z,68.66
2023-04-15T20:53:27.288Z,68.44
2023-04-15T20:55:55.192Z,68.56
2023-04-15T20:58:23.104Z,68.50
2023-04-15T21:00:52.170Z,68.53
2023-04-15T21:03:21.139Z,69.19
2023-04-15T21:05:50.500Z,68.89
2023-04-15T21:08:18.546Z,69.05
2023-04-15T21:10:46.460Z,69.07
2023-04-15T21:13:17.643Z,69.39
2023-04-15T21:15:46.011Z,69.11
2023-04-15T21:18:13.924Z,69.18
2023-04-15T21:20:41.856Z,69.28
2023-04-15T21:23:13.021Z,69.35
2023-04-15T21:25:41.086Z,69.60
2023-04-15T21:28:08.982Z,69.58
2023-04-15T21:30:36.907Z,69.62
2023-04-15T21:33:04.912Z,69.76
2023-04-15T21:35:32.919Z,69.89
2023-04-15T21:38:00.830Z,69.55
2023-04-15T21:40:30.146Z,69.79
2023-04-15T21:42:58.168Z,69.72
2023-04-15T21:45:26.448Z,70.01
2023-04-15T21:47:59.954Z,70.32
2023-04-15T21:50:37.035Z,70.03
2023-04-15T21:53:05.218Z,70.16
2023-04-15T21:55:34.589Z,70.16
2023-04-15T21:58:02.498Z,70.10
2023-04-15T22:00:30.528Z,69.95
2023-04-15T22:02:58.548Z,70.59
2023-04-15T22:05:26.585Z,70.27
2023-04-15T22:07:54.496Z,70.31
2023-04-15T22:10:22.656Z,70.24
2023-04-15T22:12:51.935Z,70.62
2023-04-15T22:15:19.842Z,70.42
2023-04-15T22:17:47.831Z,70.59
2023-04-15T22:20:15.878Z,71.42
2023-04-15T22:22:44.757Z,70.89
2023-04-15T22:25:13.128Z,70.81
2023-04-15T22:27:41.089Z,70.68
2023-04-15T22:30:11.296Z,70.90
2023-04-15T22:32:39.216Z,70.78
2023-04-15T22:35:07.682Z,70.79
2023-04-15T22:37:35.627Z,71.58
2023-04-15T22:40:03.526Z,71.58
2023-04-15T22:42:31.442Z,71.43
2023-04-15T22:44:59.348Z,71.66
2023-04-15T22:47:28.647Z,72.05
2023-04-15T22:49:56.733Z,72.06
2023-04-15T22:52:30.689Z,71.67
2023-04-15T22:54:59.171Z,71.50
2023-04-15T22:57:27.940Z,71.32
2023-04-15T22:59:56.018Z,71.42
2023-04-15T23:02:24.188Z,71.49
2023-04-15T23:04:53.767Z,71.56
2023-04-15T23:07:21.747Z,71.28
2023-04-15T23:09:49.649Z,71.26
2023-04-15T23:12:17.633Z,71.42
2023-04-15T23:14:45.550Z,71.84
2023-04-15T23:17:13.490Z,71.53
2023-04-15T23:19:41.393Z,71.42
2023-04-15T23:22:12.209Z,71.69
2023-04-15T23:24:40.180Z,71.39
2023-04-15T23:27:08.062Z,71.61
2023-04-15T23:29:36.118Z,71.73
2023-04-15T23:32:04.144Z,71.71
2023-04-15T23:34:32.132Z,72.22
2023-04-15T23:37:00.060Z,71.50
2023-04-15T23:39:30.209Z,71.85
2023-04-15T23:41:58.158Z,71.88
2023-04-15T23:44:26.215Z,71.88
2023-04-15T23:46:54.181Z,71.91
2023-04-15T23:49:22.113Z,71.64
2023-04-15T23:51:50.030Z,72.15
2023-04-15T23:54:17.916Z,72.02
2023-04-15T23:56:48.174Z,72.71
2023-04-15T23:59:16.274Z,71.77
